KIZG 221354Z AUTO 36005KT 10SM OVC110 01/M08 A3065 RMK AO2 SLP384 T00111083